Time;durP1;ratioP1;P1;durP2;ratioP2;P2;SDS_P1;SDS_P2;PMS_P1;PMS_P2;Temp;Humidity;BMP_temperature;BMP_pressure;BME280_temperature;BME280_humidity;BME280_pressure;Samples;Min_cycle;Max_cycle;Signal;HPM_P1;HPM_P2
2021/08/13 00:02:25;;;;;;;18.48;12.90;;;;;;;;;;4991266;28;39642;-79
2021/08/13 00:04:51;;;;;;;14.32;12.18;;;;;;;;;;4999493;28;37687;-79
2021/08/13 00:07:18;;;;;;;17.23;12.32;;;;;;;;;;4994072;28;35614;-79
2021/08/13 00:09:44;;;;;;;17.63;13.48;;;;;;;;;;5000135;28;39747;-79
2021/08/13 00:12:11;;;;;;;17.70;13.68;;;;;;;;;;4989015;28;37923;-79
2021/08/13 00:14:37;;;;;;;15.90;12.57;;;;;;;;;;4992143;28;40018;-79
2021/08/13 00:17:03;;;;;;;15.73;12.48;;;;;;;;;;4995702;28;37556;-78
2021/08/13 00:19:30;;;;;;;17.17;13.65;;;;;;;;;;4997782;28;38025;-79
2021/08/13 00:21:56;;;;;;;17.50;13.13;;;;;;;;;;4988501;28;39386;-79
2021/08/13 00:24:23;;;;;;;14.38;12.15;;;;;;;;;;4994118;28;41586;-79
2021/08/13 00:26:49;;;;;;;17.45;13.00;;;;;;;;;;4993702;28;37432;-79
2021/08/13 00:29:16;;;;;;;17.10;13.38;;;;;;;;;;5002210;28;39196;-79
2021/08/13 00:31:42;;;;;;;16.25;12.75;;;;;;;;;;4993621;28;40207;-79
2021/08/13 00:34:08;;;;;;;21.83;14.68;;;;;;;;;;4995086;28;42354;-79
2021/08/13 00:36:35;;;;;;;19.45;15.02;;;;;;;;;;4992938;28;37622;-78
2021/08/13 00:39:02;;;;;;;16.08;12.50;;;;;;;;;;4991907;28;39514;-79
2021/08/13 00:41:30;;;;;;;16.65;13.65;;;;;;;;;;4989247;28;47189;-79
2021/08/13 00:43:56;;;;;;;21.67;14.23;;;;;;;;;;4991111;28;37454;-79
2021/08/13 00:46:22;;;;;;;17.75;13.55;;;;;;;;;;4993735;28;37226;-78
2021/08/13 00:48:49;;;;;;;19.75;13.32;;;;;;;;;;4993838;28;38739;-79
2021/08/13 00:51:15;;;;;;;20.13;14.50;;;;;;;;;;4991650;28;39708;-79
2021/08/13 00:53:41;;;;;;;18.02;14.20;;;;;;;;;;4992962;28;37793;-78
2021/08/13 00:56:09;;;;;;;20.13;13.65;;;;;;;;;;4995635;28;37599;-79
2021/08/13 00:58:35;;;;;;;21.73;14.77;;;;;;;;;;4994401;28;38939;-80
2021/08/13 01:01:02;;;;;;;16.83;12.98;;;;;;;;;;4993413;28;38884;-76
2021/08/13 01:03:28;;;;;;;18.38;12.68;;;;;;;;;;5010728;28;38021;-79
2021/08/13 01:05:55;;;;;;;18.83;13.52;;;;;;;;;;5010348;28;37516;-79
2021/08/13 01:08:21;;;;;;;21.48;13.73;;;;;;;;;;4998885;28;39920;-79
2021/08/13 01:11:00;;;;;;;16.90;13.32;;;;;;;;;;5009751;28;39712;-79
2021/08/13 01:13:35;;;;;;;16.42;12.98;;;;;;;;;;5014251;28;46513;-78
2021/08/13 01:16:03;;;;;;;16.85;13.20;;;;;;;;;;4994461;28;37013;-78
2021/08/13 01:18:32;;;;;;;15.82;12.20;;;;;;;;;;5011853;28;49211;-79
2021/08/13 01:21:17;;;;;;;17.02;12.98;;;;;;;;;;4995189;28;39135;-79
2021/08/13 01:23:54;;;;;;;21.30;13.77;;;;;;;;;;5015114;28;48049;-79
2021/08/13 01:26:21;;;;;;;15.68;12.10;;;;;;;;;;5013191;28;38098;-79
2021/08/13 01:28:53;;;;;;;17.45;12.05;;;;;;;;;;5012253;28;39927;-79
2021/08/13 01:31:20;;;;;;;14.43;12.20;;;;;;;;;;4995695;28;39510;-79
2021/08/13 01:33:48;;;;;;;15.23;10.98;;;;;;;;;;5011364;28;40265;-79
2021/08/13 01:36:15;;;;;;;14.25;12.05;;;;;;;;;;5012651;28;38003;-79
2021/08/13 01:38:42;;;;;;;16.38;11.65;;;;;;;;;;5000774;28;39411;-79
2021/08/13 01:41:09;;;;;;;13.10;11.38;;;;;;;;;;4993829;28;39342;-79
2021/08/13 01:43:37;;;;;;;17.20;12.40;;;;;;;;;;4998068;28;40225;-77
2021/08/13 01:46:04;;;;;;;16.55;12.63;;;;;;;;;;5012130;28;37033;-77
2021/08/13 01:48:33;;;;;;;15.15;11.75;;;;;;;;;;5007986;28;40051;-78
2021/08/13 01:51:00;;;;;;;14.80;11.82;;;;;;;;;;5013848;28;39985;-78
2021/08/13 01:53:27;;;;;;;16.02;11.35;;;;;;;;;;5016446;28;39382;-78
2021/08/13 01:55:54;;;;;;;18.13;12.35;;;;;;;;;;5013889;28;37674;-78
2021/08/13 01:58:22;;;;;;;12.57;10.30;;;;;;;;;;5011978;28;39356;-78
2021/08/13 02:00:51;;;;;;;13.57;10.25;;;;;;;;;;5001908;28;40609;-78
2021/08/13 02:03:17;;;;;;;12.23;10.57;;;;;;;;;;5017264;28;40152;-78
2021/08/13 02:05:44;;;;;;;13.00;10.35;;;;;;;;;;4999563;28;37766;-78
2021/08/13 02:08:11;;;;;;;12.98;10.35;;;;;;;;;;5012996;28;41075;-77
2021/08/13 02:10:39;;;;;;;15.95;11.27;;;;;;;;;;4999816;28;39458;-78
2021/08/13 02:13:06;;;;;;;11.48;9.95;;;;;;;;;;5015871;28;39862;-78
2021/08/13 02:15:34;;;;;;;13.38;10.20;;;;;;;;;;4996484;28;37364;-77
2021/08/13 02:18:27;;;;;;;11.23;9.80;;;;;;;;;;5014669;28;38924;-78
2021/08/13 02:20:53;;;;;;;;;;;;;;;;;;4991418;28;47244;-78
2021/08/13 02:23:19;;;;;;;10.77;8.43;;;;;;;;;;4998370;28;38059;-78
2021/08/13 02:25:46;;;;;;;12.75;8.38;;;;;;;;;;5012658;28;36589;-78
2021/08/13 02:28:13;;;;;;;11.38;9.23;;;;;;;;;;5016964;28;38705;-78
2021/08/13 02:30:40;;;;;;;12.18;8.98;;;;;;;;;;5012578;28;39202;-77
2021/08/13 02:33:06;;;;;;;12.23;8.25;;;;;;;;;;4997575;28;39198;-78
2021/08/13 02:35:34;;;;;;;9.32;8.13;;;;;;;;;;4990566;28;37306;-78
2021/08/13 02:38:06;;;;;;;13.23;8.95;;;;;;;;;;5014344;28;39214;-78
2021/08/13 02:40:36;;;;;;;11.57;8.80;;;;;;;;;;5009010;28;49251;-78
2021/08/13 02:43:03;;;;;;;9.10;7.80;;;;;;;;;;4999966;28;39100;-77
2021/08/13 02:45:30;;;;;;;10.25;9.00;;;;;;;;;;4995234;28;37571;-78
2021/08/13 02:47:59;;;;;;;10.27;9.07;;;;;;;;;;4997676;28;39556;-78
2021/08/13 02:50:27;;;;;;;9.68;8.68;;;;;;;;;;4998676;28;39128;-78
2021/08/13 02:53:02;;;;;;;11.80;8.25;;;;;;;;;;4996711;28;38757;-78
2021/08/13 02:55:37;;;;;;;12.02;8.95;;;;;;;;;;5011994;28;48481;-78
2021/08/13 02:58:04;;;;;;;10.13;8.27;;;;;;;;;;5009180;28;39417;-77
2021/08/13 03:00:31;;;;;;;11.25;9.05;;;;;;;;;;5015165;28;39726;-78
2021/08/13 03:02:59;;;;;;;11.63;7.97;;;;;;;;;;5015231;28;39594;-78
2021/08/13 03:05:25;;;;;;;12.50;9.55;;;;;;;;;;5011156;28;35268;-78
2021/08/13 03:07:52;;;;;;;9.25;8.07;;;;;;;;;;5013555;28;39909;-78
2021/08/13 03:10:19;;;;;;;12.13;9.88;;;;;;;;;;4996997;28;39789;-78
2021/08/13 03:12:46;;;;;;;11.05;8.60;;;;;;;;;;4999460;28;39140;-78
2021/08/13 03:15:13;;;;;;;11.57;8.98;;;;;;;;;;4995503;28;37214;-79
2021/08/13 03:17:39;;;;;;;11.23;8.98;;;;;;;;;;4999590;28;39378;-78
2021/08/13 03:20:07;;;;;;;9.90;8.70;;;;;;;;;;4996314;28;39513;-77
2021/08/13 03:22:34;;;;;;;12.05;8.85;;;;;;;;;;4996668;28;37216;-79
2021/08/13 03:25:01;;;;;;;11.55;8.85;;;;;;;;;;5014082;28;35786;-78
2021/08/13 03:27:27;;;;;;;9.15;8.25;;;;;;;;;;5013459;28;40205;-78
2021/08/13 03:29:54;;;;;;;10.50;8.88;;;;;;;;;;5012897;28;38595;-78
2021/08/13 03:32:20;;;;;;;11.38;8.88;;;;;;;;;;4995561;28;39462;-78
2021/08/13 03:34:48;;;;;;;13.43;9.45;;;;;;;;;;5016693;28;36911;-78
2021/08/13 03:37:15;;;;;;;14.93;9.70;;;;;;;;;;4998407;28;38326;-77
2021/08/13 03:39:41;;;;;;;12.05;8.25;;;;;;;;;;4993682;28;39347;-77
2021/08/13 03:42:08;;;;;;;13.00;8.52;;;;;;;;;;4997643;28;40511;-77
2021/08/13 03:44:34;;;;;;;14.15;8.85;;;;;;;;;;5014382;28;36525;-78
2021/08/13 03:47:01;;;;;;;12.93;9.38;;;;;;;;;;5013796;28;38326;-78
2021/08/13 03:49:27;;;;;;;11.32;9.10;;;;;;;;;;4997700;28;47702;-78
2021/08/13 03:51:56;;;;;;;11.80;8.88;;;;;;;;;;5013203;28;37997;-78
2021/08/13 03:54:23;;;;;;;13.82;9.80;;;;;;;;;;4997472;28;38504;-77
2021/08/13 03:56:49;;;;;;;13.50;8.88;;;;;;;;;;5013468;28;39657;-78
2021/08/13 03:59:16;;;;;;;12.73;9.38;;;;;;;;;;4998965;28;40190;-78
2021/08/13 04:01:42;;;;;;;11.07;8.55;;;;;;;;;;4998301;28;36897;-78
2021/08/13 04:04:08;;;;;;;15.60;9.35;;;;;;;;;;4995227;28;35780;-77
2021/08/13 04:06:35;;;;;;;13.75;9.93;;;;;;;;;;5016490;28;39063;-78
2021/08/13 04:09:01;;;;;;;15.07;11.18;;;;;;;;;;4995653;28;39102;-78
2021/08/13 04:11:27;;;;;;;12.80;10.50;;;;;;;;;;5012710;28;48616;-78
2021/08/13 04:13:54;;;;;;;14.15;11.27;;;;;;;;;;5009054;28;37219;-78
2021/08/13 04:16:20;;;;;;;13.85;11.45;;;;;;;;;;5014502;28;38930;-78
2021/08/13 04:18:46;;;;;;;17.02;11.13;;;;;;;;;;5016561;28;39248;-78
2021/08/13 04:21:13;;;;;;;14.98;11.60;;;;;;;;;;4997200;28;38742;-78
2021/08/13 04:23:39;;;;;;;17.50;12.65;;;;;;;;;;5017643;28;37221;-78
2021/08/13 04:26:05;;;;;;;14.45;11.00;;;;;;;;;;5002303;28;39355;-78
2021/08/13 04:28:32;;;;;;;18.42;11.95;;;;;;;;;;5017778;28;39925;-78
2021/08/13 04:30:58;;;;;;;15.10;11.50;;;;;;;;;;5014953;28;37975;-78
2021/08/13 04:33:25;;;;;;;15.75;12.38;;;;;;;;;;5015758;28;37277;-78
2021/08/13 04:35:51;;;;;;;20.70;13.55;;;;;;;;;;5002222;28;39285;-78
2021/08/13 04:38:18;;;;;;;18.60;12.63;;;;;;;;;;5015668;28;37293;-78
2021/08/13 04:40:45;;;;;;;20.42;14.13;;;;;;;;;;5010222;28;40542;-78
2021/08/13 04:43:11;;;;;;;15.95;12.00;;;;;;;;;;4997269;28;36391;-78
2021/08/13 04:45:38;;;;;;;17.85;12.10;;;;;;;;;;5009271;28;38889;-78
2021/08/13 04:48:04;;;;;;;16.10;12.85;;;;;;;;;;5006834;28;39225;-78
2021/08/13 04:50:30;;;;;;;19.45;12.48;;;;;;;;;;4993567;28;37547;-79
2021/08/13 04:52:57;;;;;;;20.00;13.07;;;;;;;;;;4999480;28;38417;-78
2021/08/13 04:55:25;;;;;;;17.95;11.95;;;;;;;;;;4995652;28;39882;-78
2021/08/13 04:57:51;;;;;;;17.20;12.55;;;;;;;;;;5014441;28;39073;-79
2021/08/13 05:00:18;;;;;;;19.33;12.00;;;;;;;;;;5011879;28;38653;-78
2021/08/13 05:02:45;;;;;;;16.27;12.25;;;;;;;;;;5012266;28;37737;-78
2021/08/13 05:05:11;;;;;;;12.20;10.63;;;;;;;;;;4999041;28;38278;-79
2021/08/13 05:07:38;;;;;;;17.65;11.80;;;;;;;;;;5001705;28;39136;-78
2021/08/13 05:10:11;;;;;;;15.40;12.52;;;;;;;;;;5011954;28;39704;-77
2021/08/13 05:12:38;;;;;;;15.07;10.77;;;;;;;;;;4996150;28;47177;-78
2021/08/13 05:15:05;;;;;;;17.80;11.48;;;;;;;;;;4994434;28;39028;-77
2021/08/13 05:17:32;;;;;;;16.15;11.48;;;;;;;;;;4997121;28;37821;-78
2021/08/13 05:19:58;;;;;;;14.40;9.98;;;;;;;;;;5000727;28;40321;-78
2021/08/13 05:22:24;;;;;;;15.50;11.55;;;;;;;;;;4998425;28;37671;-78
2021/08/13 05:24:51;;;;;;;17.67;11.75;;;;;;;;;;5014530;28;40017;-79
2021/08/13 05:27:18;;;;;;;13.93;9.93;;;;;;;;;;4998430;28;38274;-78
2021/08/13 05:29:44;;;;;;;15.95;10.20;;;;;;;;;;5013343;28;38763;-78
2021/08/13 05:32:11;;;;;;;11.55;9.05;;;;;;;;;;5010288;28;38009;-78
2021/08/13 05:34:37;;;;;;;13.77;9.77;;;;;;;;;;4997252;28;38388;-78
2021/08/13 05:37:03;;;;;;;14.68;10.63;;;;;;;;;;5017306;28;39612;-78
2021/08/13 05:39:30;;;;;;;13.23;9.07;;;;;;;;;;5016355;28;39846;-78
2021/08/13 05:41:56;;;;;;;13.07;9.45;;;;;;;;;;5016963;28;38170;-78
2021/08/13 05:44:22;;;;;;;12.43;9.18;;;;;;;;;;5020844;28;38457;-78
2021/08/13 05:46:49;;;;;;;15.73;9.70;;;;;;;;;;5001457;28;40295;-78
2021/08/13 05:49:15;;;;;;;14.95;9.02;;;;;;;;;;5016946;28;39819;-78
2021/08/13 05:51:42;;;;;;;13.93;9.50;;;;;;;;;;5002147;28;37361;-78
2021/08/13 05:54:08;;;;;;;14.27;9.15;;;;;;;;;;5017801;28;40626;-79
2021/08/13 05:56:34;;;;;;;15.52;9.77;;;;;;;;;;4999137;28;38443;-78
2021/08/13 05:59:01;;;;;;;11.13;9.23;;;;;;;;;;5017859;28;39215;-79
2021/08/13 06:01:28;;;;;;;14.93;9.15;;;;;;;;;;5015962;28;38330;-79
2021/08/13 06:03:54;;;;;;;12.85;9.07;;;;;;;;;;5004041;28;39515;-79
2021/08/13 06:06:21;;;;;;;12.10;8.27;;;;;;;;;;5022400;28;39503;-79
2021/08/13 06:08:47;;;;;;;14.43;9.27;;;;;;;;;;5018228;28;38880;-77
2021/08/13 06:11:14;;;;;;;11.18;7.93;;;;;;;;;;5019251;28;39506;-78
2021/08/13 06:13:40;;;;;;;16.33;10.27;;;;;;;;;;5017220;28;38741;-79
2021/08/13 06:16:06;;;;;;;13.10;9.98;;;;;;;;;;5016282;28;39535;-79
2021/08/13 06:18:33;;;;;;;12.32;9.20;;;;;;;;;;5006657;28;38581;-79
2021/08/13 06:20:59;;;;;;;12.88;9.50;;;;;;;;;;5016398;28;37644;-80
2021/08/13 06:23:25;;;;;;;14.10;9.52;;;;;;;;;;4999224;28;39838;-79
2021/08/13 06:25:52;;;;;;;14.05;9.90;;;;;;;;;;5002460;28;39342;-79
2021/08/13 06:28:18;;;;;;;15.93;9.77;;;;;;;;;;5020320;28;38719;-80
2021/08/13 06:30:45;;;;;;;11.93;7.78;;;;;;;;;;5266302;22;36564;-80
2021/08/13 06:33:11;;;;;;;17.13;9.40;;;;;;;;;;5068991;28;38008;-79
2021/08/13 06:35:37;;;;;;;14.73;7.68;;;;;;;;;;5046492;28;39735;-79
2021/08/13 06:38:04;;;;;;;9.50;7.43;;;;;;;;;;5061351;28;39171;-80
2021/08/13 06:40:33;;;;;;;11.73;7.22;;;;;;;;;;5066408;28;37764;-80
2021/08/13 06:42:59;;;;;;;13.13;7.20;;;;;;;;;;5045740;28;39288;-80
2021/08/13 06:45:27;;;;;;;12.23;6.47;;;;;;;;;;5063658;28;39284;-79
2021/08/13 06:47:53;;;;;;;10.85;6.38;;;;;;;;;;5049855;28;41605;-79
2021/08/13 06:50:20;;;;;;;10.18;6.45;;;;;;;;;;5061496;28;36814;-80
2021/08/13 06:52:46;;;;;;;10.13;6.15;;;;;;;;;;5068294;28;39911;-80
2021/08/13 06:55:13;;;;;;;8.95;4.18;;;;;;;;;;5054264;28;39554;-80
2021/08/13 06:57:40;;;;;;;7.88;3.92;;;;;;;;;;5058430;28;38437;-80
2021/08/13 07:00:08;;;;;;;6.82;3.85;;;;;;;;;;5073304;28;37520;-80
2021/08/13 07:02:34;;;;;;;9.18;3.50;;;;;;;;;;5066643;28;47442;-80
2021/08/13 07:05:01;;;;;;;7.70;3.95;;;;;;;;;;5074121;28;39930;-80
2021/08/13 07:07:27;;;;;;;7.57;3.58;;;;;;;;;;5071412;28;38731;-80
2021/08/13 07:09:54;;;;;;;7.90;3.85;;;;;;;;;;5067988;28;38697;-80
2021/08/13 07:12:20;;;;;;;8.75;4.07;;;;;;;;;;5070453;28;39270;-79
2021/08/13 07:14:46;;;;;;;6.05;3.45;;;;;;;;;;5053457;28;37704;-79
2021/08/13 07:17:13;;;;;;;8.75;3.55;;;;;;;;;;5052487;28;39954;-80
2021/08/13 07:19:39;;;;;;;10.32;3.65;;;;;;;;;;5067007;28;35959;-79
2021/08/13 07:22:05;;;;;;;6.32;3.05;;;;;;;;;;5065839;28;40146;-79
2021/08/13 07:24:32;;;;;;;7.07;4.13;;;;;;;;;;5071836;28;38789;-80
2021/08/13 07:26:58;;;;;;;7.25;3.10;;;;;;;;;;5070133;28;39131;-79
2021/08/13 07:29:25;;;;;;;5.45;3.13;;;;;;;;;;5068772;28;36684;-79
2021/08/13 07:31:53;;;;;;;11.05;3.75;;;;;;;;;;5066348;28;40954;-78
2021/08/13 07:34:19;;;;;;;7.30;3.05;;;;;;;;;;5049948;28;39553;-79
2021/08/13 07:36:46;;;;;;;5.80;2.88;;;;;;;;;;5050142;28;39419;-78
2021/08/13 07:39:12;;;;;;;8.70;3.30;;;;;;;;;;5063517;28;37787;-79
2021/08/13 07:41:39;;;;;;;9.32;3.58;;;;;;;;;;5065593;28;39283;-79
2021/08/13 07:44:05;;;;;;;8.65;3.60;;;;;;;;;;5053702;28;38040;-78
2021/08/13 07:46:32;;;;;;;7.20;2.90;;;;;;;;;;5067461;28;39185;-79
2021/08/13 07:48:58;;;;;;;6.93;2.47;;;;;;;;;;5068723;28;35708;-77
2021/08/13 07:51:26;;;;;;;7.10;3.20;;;;;;;;;;5065301;28;20049;-78
2021/08/13 07:53:53;;;;;;;6.93;2.70;;;;;;;;;;5064988;28;40014;-78
2021/08/13 07:56:19;;;;;;;5.50;2.85;;;;;;;;;;5072290;28;38253;-78
2021/08/13 07:58:46;;;;;;;5.30;2.85;;;;;;;;;;5067055;28;36528;-78
2021/08/13 08:01:12;;;;;;;5.35;2.65;;;;;;;;;;5058752;28;37853;-78
2021/08/13 08:03:39;;;;;;;5.68;2.60;;;;;;;;;;5070016;28;38772;-80
2021/08/13 08:06:05;;;;;;;5.50;2.58;;;;;;;;;;5068810;28;39520;-78
2021/08/13 08:08:32;;;;;;;6.50;3.30;;;;;;;;;;5070347;28;37974;-78
2021/08/13 08:10:58;;;;;;;5.90;2.70;;;;;;;;;;5068419;28;37752;-78
2021/08/13 08:13:25;;;;;;;3.85;2.40;;;;;;;;;;5071613;28;40444;-78
2021/08/13 08:15:51;;;;;;;5.13;2.20;;;;;;;;;;5072881;28;39485;-78
2021/08/13 08:18:20;;;;;;;5.90;2.80;;;;;;;;;;5088251;28;38252;-79
2021/08/13 08:20:47;;;;;;;4.97;2.53;;;;;;;;;;5091560;28;40273;-79
2021/08/13 08:23:13;;;;;;;5.13;2.60;;;;;;;;;;5092561;28;38858;-79
2021/08/13 08:25:39;;;;;;;5.40;2.38;;;;;;;;;;5090212;28;37177;-80
2021/08/13 08:28:17;;;;;;;4.68;2.97;;;;;;;;;;5073575;28;35725;-80
2021/08/13 08:30:43;;;;;;;4.43;2.58;;;;;;;;;;5089211;28;39564;-79
2021/08/13 08:33:12;;;;;;;5.32;2.53;;;;;;;;;;5085174;28;38647;-80
2021/08/13 08:35:38;;;;;;;6.78;2.53;;;;;;;;;;5092220;28;37798;-81
2021/08/13 08:38:04;;;;;;;6.25;2.67;;;;;;;;;;5094192;28;38067;-80
2021/08/13 08:40:31;;;;;;;7.28;2.75;;;;;;;;;;5093408;28;39015;-81
2021/08/13 08:42:59;;;;;;;4.72;2.53;;;;;;;;;;5079279;28;38778;-81
2021/08/13 08:50:50;;;;;;;5.20;2.30;;;;;;;;;;5342921;22;20037;-80
2021/08/13 08:53:24;;;;;;;3.78;2.53;;;;;;;;;;5043641;28;37840;-81
2021/08/13 08:55:55;;;;;;;6.90;2.40;;;;;;;;;;5035635;28;40636;-80
2021/08/13 08:58:27;;;;;;;5.45;2.33;;;;;;;;;;5050126;23;37439;-79
2021/08/13 09:03:30;;;;;;;5.65;2.00;;;;;;;;;;5350624;22;20037;-81
2021/08/13 09:22:20;;;;;;;10.02;2.53;;;;;;;;;;5325266;22;20042;-79
2021/08/13 09:24:53;;;;;;;6.35;2.20;;;;;;;;;;5063170;28;38679;-78
2021/08/13 09:27:20;;;;;;;3.88;1.85;;;;;;;;;;5070446;28;39758;-78
2021/08/13 09:30:05;;;;;;;5.63;2.33;;;;;;;;;;5074808;28;37670;-79
2021/08/13 09:33:05;;;;;;;5.50;2.10;;;;;;;;;;5071224;28;49006;-78
2021/08/13 09:35:38;;;;;;;5.47;2.05;;;;;;;;;;5065362;28;48910;-79
2021/08/13 09:38:32;;;;;;;8.02;2.28;;;;;;;;;;5070908;28;39146;-79
2021/08/13 09:41:14;;;;;;;8.77;3.17;;;;;;;;;;5270830;22;36758;-78
2021/08/13 09:44:00;;;;;;;5.03;2.30;;;;;;;;;;5031469;28;45362;-81
2021/08/13 09:46:27;;;;;;;6.53;2.50;;;;;;;;;;5032357;28;39362;-80
2021/08/13 09:49:16;;;;;;;7.95;2.55;;;;;;;;;;5057769;28;38946;-78
2021/08/13 09:51:43;;;;;;;6.60;1.90;;;;;;;;;;5043396;28;48667;-78
2021/08/13 09:54:11;;;;;;;9.35;2.63;;;;;;;;;;5045130;28;39409;-78
2021/08/13 09:56:39;;;;;;;8.98;2.30;;;;;;;;;;5051952;28;40088;-78
2021/08/13 09:59:08;;;;;;;6.15;2.83;;;;;;;;;;5046846;28;38952;-78
2021/08/13 10:01:38;;;;;;;7.18;2.50;;;;;;;;;;5045724;28;37104;-78
2021/08/13 10:04:05;;;;;;;12.02;2.67;;;;;;;;;;5039275;28;38223;-79
2021/08/13 10:06:32;;;;;;;6.45;2.47;;;;;;;;;;5030673;28;38332;-79
2021/08/13 10:08:59;;;;;;;7.75;2.75;;;;;;;;;;5030901;28;37763;-79
2021/08/13 10:11:26;;;;;;;9.10;2.80;;;;;;;;;;5023888;28;36486;-79
2021/08/13 10:13:52;;;;;;;9.45;2.72;;;;;;;;;;5032536;28;38937;-78
2021/08/13 10:16:26;;;;;;;5.53;1.92;;;;;;;;;;5030282;28;37229;-79
2021/08/13 10:18:55;;;;;;;5.90;2.13;;;;;;;;;;5052526;28;38350;-79
2021/08/13 10:21:25;;;;;;;7.97;2.30;;;;;;;;;;5033464;28;35870;-80
2021/08/13 10:23:53;;;;;;;7.45;2.80;;;;;;;;;;5051563;28;40171;-78
2021/08/13 10:26:31;;;;;;;6.32;2.50;;;;;;;;;;5030564;28;37783;-78
2021/08/13 10:28:57;;;;;;;7.45;2.13;;;;;;;;;;5032968;28;38660;-78
2021/08/13 10:31:24;;;;;;;12.75;2.90;;;;;;;;;;5049151;28;36684;-78
2021/08/13 10:33:52;;;;;;;5.85;2.13;;;;;;;;;;5042726;28;39030;-78
2021/08/13 10:36:19;;;;;;;7.65;2.20;;;;;;;;;;5013476;28;38509;-78
2021/08/13 10:38:48;;;;;;;6.28;2.17;;;;;;;;;;5030043;28;38711;-77
2021/08/13 10:41:16;;;;;;;8.50;2.28;;;;;;;;;;5035522;28;37867;-78
2021/08/13 10:43:53;;;;;;;5.93;2.13;;;;;;;;;;5024646;28;38388;-79
2021/08/13 10:46:20;;;;;;;8.02;2.13;;;;;;;;;;5032814;28;38310;-79
2021/08/13 10:48:47;;;;;;;6.75;2.00;;;;;;;;;;5051398;28;39753;-79
2021/08/13 10:51:13;;;;;;;8.27;2.58;;;;;;;;;;5047555;28;37314;-79
2021/08/13 10:53:40;;;;;;;9.82;2.83;;;;;;;;;;5044671;28;38646;-79
2021/08/13 10:56:06;;;;;;;9.40;2.30;;;;;;;;;;5046004;28;39369;-79
2021/08/13 10:58:39;;;;;;;10.57;2.35;;;;;;;;;;5026459;28;39218;-78
2021/08/13 11:01:13;;;;;;;5.93;1.90;;;;;;;;;;5043273;28;38170;-78
2021/08/13 11:03:41;;;;;;;5.95;2.25;;;;;;;;;;5045399;28;40709;-79
2021/08/13 11:06:08;;;;;;;9.43;2.60;;;;;;;;;;5029487;28;38710;-79
2021/08/13 11:08:40;;;;;;;6.85;2.35;;;;;;;;;;5028873;28;39118;-79
2021/08/13 11:11:07;;;;;;;8.85;2.25;;;;;;;;;;5045171;28;37513;-80
2021/08/13 11:13:38;;;;;;;6.57;2.25;;;;;;;;;;5050533;28;38851;-81
2021/08/13 11:16:24;;;;;;;6.72;2.15;;;;;;;;;;5044250;28;40096;-79
2021/08/13 11:18:59;;;;;;;6.70;2.17;;;;;;;;;;5036755;28;39047;-79
2021/08/13 11:21:32;;;;;;;9.52;2.30;;;;;;;;;;5031142;28;37426;-80
2021/08/13 11:24:00;;;;;;;7.22;2.00;;;;;;;;;;5032984;28;38760;-79
2021/08/13 11:26:45;;;;;;;6.93;2.10;;;;;;;;;;5047899;28;40341;-79
2021/08/13 11:29:30;;;;;;;8.50;2.42;;;;;;;;;;5040253;28;37977;-79
2021/08/13 11:31:57;;;;;;;5.20;2.22;;;;;;;;;;5030890;28;36873;-79
2021/08/13 11:34:42;;;;;;;9.05;2.30;;;;;;;;;;5032071;28;38426;-79
2021/08/13 11:37:08;;;;;;;6.47;2.30;;;;;;;;;;5042392;28;39704;-79
2021/08/13 11:39:36;;;;;;;6.40;2.25;;;;;;;;;;5048135;28;36964;-77
2021/08/13 11:42:06;;;;;;;5.75;1.95;;;;;;;;;;5019741;28;36928;-76
2021/08/13 11:44:34;;;;;;;7.20;2.35;;;;;;;;;;5010467;28;39355;-79
2021/08/13 11:47:01;;;;;;;10.05;2.30;;;;;;;;;;5016299;28;38768;-80
2021/08/13 11:49:27;;;;;;;5.90;2.13;;;;;;;;;;5016278;28;50017;-80
2021/08/13 11:51:56;;;;;;;7.47;2.60;;;;;;;;;;5007951;28;35931;-80
2021/08/13 12:12:45;;;;;;;10.73;2.20;;;;;;;;;;5816536;23;20053;-79
2021/08/13 12:15:51;;;;;;;8.38;2.55;;;;;;;;;;5013956;28;37610;-79
2021/08/13 12:18:49;;;;;;;7.25;2.60;;;;;;;;;;5835236;23;39240;31
2021/08/13 12:21:19;;;;;;;11.43;2.80;;;;;;;;;;5619119;23;38659;-76
2021/08/13 12:28:58;;;;;;;9.15;2.67;;;;;;;;;;5261314;22;20060;-78
2021/08/13 12:31:24;;;;;;;13.55;3.13;;;;;;;;;;5014640;28;37532;-76
2021/08/13 12:33:59;;;;;;;8.75;2.83;;;;;;;;;;5033637;28;36105;-78
2021/08/13 12:36:27;;;;;;;7.93;2.55;;;;;;;;;;5015910;28;41000;-78
2021/08/13 12:39:02;;;;;;;8.10;2.85;;;;;;;;;;5057138;28;38439;-78
2021/08/13 12:44:17;;;;;;;11.05;2.83;;;;;;;;;;5213617;23;20075;-77
2021/08/13 12:46:43;;;;;;;6.53;2.35;;;;;;;;;;5163043;22;39063;-78
2021/08/13 12:49:10;;;;;;;8.25;2.58;;;;;;;;;;5068503;28;39366;-78
2021/08/13 12:51:36;;;;;;;8.05;2.25;;;;;;;;;;5168041;22;38576;-78
2021/08/13 12:54:03;;;;;;;8.05;2.80;;;;;;;;;;5470615;22;36881;-78
2021/08/13 12:56:29;;;;;;;8.85;2.70;;;;;;;;;;5244188;22;39963;-77
2021/08/13 12:59:09;;;;;;;9.85;2.60;;;;;;;;;;5068003;28;37483;-77
2021/08/13 13:01:36;;;;;;;10.23;3.17;;;;;;;;;;5051930;28;49357;-78
2021/08/13 13:04:06;;;;;;;13.10;2.88;;;;;;;;;;5041392;28;36617;-78
2021/08/13 13:06:33;;;;;;;10.75;3.03;;;;;;;;;;5055457;28;39171;-79
2021/08/13 13:09:05;;;;;;;11.30;2.80;;;;;;;;;;5042165;28;39428;-79
2021/08/13 13:11:42;;;;;;;12.60;3.25;;;;;;;;;;5046117;28;50094;-79
2021/08/13 13:14:14;;;;;;;11.80;3.08;;;;;;;;;;5050596;28;37343;-79
2021/08/13 13:21:53;;;;;;;7.50;2.33;;;;;;;;;;5643198;22;20056;-78
2021/08/13 13:49:24;;;;;;;9.52;2.83;;;;;;;;;;5413610;22;20068;-79
2021/08/13 13:51:51;;;;;;;7.53;2.50;;;;;;;;;;5074400;28;38267;-79
2021/08/13 14:02:06;;;;;;;12.50;2.85;;;;;;;;;;6136008;23;20013;-78
2021/08/13 14:04:57;;;;;;;13.63;2.80;;;;;;;;;;5053549;28;37654;-80
2021/08/13 14:07:30;;;;;;;9.40;3.15;;;;;;;;;;5028514;28;37330;-79
2021/08/13 14:10:24;;;;;;;8.97;2.93;;;;;;;;;;5039716;28;40199;-80
2021/08/13 14:12:53;;;;;;;13.15;2.90;;;;;;;;;;5020514;28;47664;-79
2021/08/13 14:15:32;;;;;;;11.18;2.72;;;;;;;;;;5053942;28;48116;-79
2021/08/13 14:18:16;;;;;;;7.15;2.60;;;;;;;;;;5072209;28;37477;-79
2021/08/13 14:20:52;;;;;;;11.65;2.97;;;;;;;;;;5048866;28;49929;-80
2021/08/13 14:31:19;;;;;;;15.40;2.88;;;;;;;;;;5667076;23;20026;-79
2021/08/13 14:33:48;;;;;;;9.27;2.60;;;;;;;;;;5039375;28;39682;-79
2021/08/13 14:41:39;;;;;;;9.18;2.85;;;;;;;;;;5200432;22;20034;-79
2021/08/13 14:44:41;;;;;;;9.73;2.90;;;;;;;;;;5060675;28;37869;-81
2021/08/13 14:55:05;;;;;;;8.00;2.72;;;;;;;;;;5596400;23;20034;-79
2021/08/13 14:57:32;;;;;;;9.75;3.20;;;;;;;;;;5400500;23;48634;-78
2021/08/13 15:00:17;;;;;;;9.95;2.63;;;;;;;;;;5044609;28;37498;-78
2021/08/13 15:02:47;;;;;;;;;;;;;;;;;;5032051;28;46976;-78
2021/08/13 15:05:17;;;;;;;10.25;2.90;;;;;;;;;;5050432;28;39025;-79
2021/08/13 15:07:51;;;;;;;8.73;2.65;;;;;;;;;;5034523;28;39876;-79
2021/08/13 15:10:23;;;;;;;9.27;2.33;;;;;;;;;;5013843;28;37758;-80
2021/08/13 15:12:53;;;;;;;8.80;3.00;;;;;;;;;;5022181;28;39825;-79
2021/08/13 15:15:36;;;;;;;8.57;2.70;;;;;;;;;;5015115;28;40263;-80
2021/08/13 15:24:14;;;;;;;7.70;2.25;;;;;;;;;;5369853;23;20029;-80
2021/08/13 15:27:04;;;;;;;10.57;2.92;;;;;;;;;;5085932;28;40438;-79
2021/08/13 15:32:08;;;;;;;8.65;2.67;;;;;;;;;;5100320;23;20187;-78
2021/08/13 15:34:34;;;;;;;11.27;3.05;;;;;;;;;;5056813;28;40707;-79
2021/08/13 15:37:06;;;;;;;7.22;2.67;;;;;;;;;;5059736;28;37873;-78
2021/08/13 15:40:05;;;;;;;9.40;2.70;;;;;;;;;;5059372;28;48883;-80
2021/08/13 15:42:35;;;;;;;7.68;2.70;;;;;;;;;;5476079;23;48295;-79
2021/08/13 15:54:01;;;;;;;12.15;2.85;;;;;;;;;;5014785;28;38372;-79
2021/08/13 15:56:28;;;;;;;8.45;2.97;;;;;;;;;;5042830;28;48834;-79
2021/08/13 15:58:55;;;;;;;12.27;3.15;;;;;;;;;;5028907;28;39214;-79
2021/08/13 16:01:22;;;;;;;10.50;3.17;;;;;;;;;;5034302;28;38490;-79
2021/08/13 16:03:50;;;;;;;9.00;2.38;;;;;;;;;;5041538;28;36780;-79
2021/08/13 16:06:21;;;;;;;14.77;2.95;;;;;;;;;;5035133;28;40376;-79
2021/08/13 17:20:57;;;;;;;11.18;3.10;;;;;;;;;;5658857;22;20871;-80
2021/08/13 17:28:41;;;;;;;11.85;3.55;;;;;;;;;;5640341;22;20049;-79
2021/08/13 17:31:11;;;;;;;10.30;3.00;;;;;;;;;;5040672;28;38192;-80
2021/08/13 17:33:38;;;;;;;12.25;2.95;;;;;;;;;;5042792;28;39062;-80
2021/08/13 17:36:04;;;;;;;11.55;2.95;;;;;;;;;;5031906;28;38128;-79
2021/08/13 17:38:31;;;;;;;10.80;3.20;;;;;;;;;;5043771;28;37988;-80
2021/08/13 17:40:57;;;;;;;10.50;3.65;;;;;;;;;;5038273;28;37192;-80
2021/08/13 17:43:24;;;;;;;12.82;3.25;;;;;;;;;;5056229;28;37426;-80
2021/08/13 17:45:56;;;;;;;16.60;3.53;;;;;;;;;;5020722;28;40483;-81
2021/08/13 17:48:39;;;;;;;;;;;;;;;;;;5044662;28;39048;-81
2021/08/13 17:51:05;;;;;;;12.40;3.22;;;;;;;;;;5038146;28;37290;-81
2021/08/13 17:53:33;;;;;;;14.45;3.72;;;;;;;;;;5044147;28;39357;-81
2021/08/13 17:55:59;;;;;;;13.45;3.78;;;;;;;;;;5070199;28;39444;-81
2021/08/13 17:58:35;;;;;;;18.55;3.42;;;;;;;;;;5045866;28;38493;-81
2021/08/13 18:04:28;;;;;;;13.48;3.45;;;;;;;;;;5054734;26;20038;-82
2021/08/13 18:06:55;;;;;;;12.55;3.15;;;;;;;;;;5049921;28;50227;-81
2021/08/13 18:09:34;;;;;;;17.02;3.38;;;;;;;;;;5077166;28;39545;-81
2021/08/13 18:12:20;;;;;;;11.25;3.83;;;;;;;;;;5067319;28;38241;-80
2021/08/13 18:15:02;;;;;;;12.07;3.38;;;;;;;;;;5026698;28;47894;-80